.
WxDataArchive / Data Records for 2009-07-31
2009-07-30 July 2009 2009-08-01

Data Records for Friday, 31 July 2009

Time	Temp	Chill	HIndex	Humid	Dewpt	 Wind 	HiWind	WindDir	Rain 	Barom 
-----	----	-----	------	-----	-----	------	------	-------	-----	----- 
00:00	66.1	66.1	66.1	84	61.1	0	0	---	0.00	29.865 
00:05	66.0	66.0	66.0	84	61.0	0	0	---	0.00	29.865 
00:10	66.0	66.0	66.0	84	61.0	0	0	---	0.00	29.865 
00:15	65.8	65.8	65.8	84	60.8	0	0	---	0.00	29.863 
00:20	65.8	65.8	65.8	84	60.8	0	0	---	0.00	29.863 
00:25	65.6	65.6	65.6	84	60.6	0	0	---	0.00	29.863 
00:30	65.5	65.5	65.5	84	60.5	0	0	---	0.00	29.865 
00:35	65.5	65.5	65.5	84	60.5	0	0	---	0.00	29.865 
00:40	65.3	65.3	65.3	84	60.3	0	0	---	0.00	29.865 
00:45	65.3	65.3	65.3	85	60.7	0	0	---	0.00	29.866 
00:50	65.3	65.3	65.3	85	60.7	0	0	---	0.00	29.866 
00:55	65.2	65.2	65.2	85	60.6	0	0	---	0.00	29.866 
01:00	65.2	65.2	65.2	85	60.6	0	0	---	0.00	29.861 
01:05	65.0	65.0	65.0	85	60.4	0	0	---	0.00	29.861 
01:10	65.0	65.0	65.0	86	60.7	0	0	---	0.00	29.861 
01:15	65.0	65.0	65.0	86	60.7	0	0	---	0.00	29.860 
01:20	64.8	64.8	64.8	87	60.8	0	0	---	0.00	29.860 
01:25	64.8	64.8	64.8	87	60.8	0	0	---	0.00	29.860 
01:30	64.8	64.8	64.8	87	60.8	0	0	---	0.00	29.860 
01:35	64.7	64.7	64.7	87	60.7	0	0	---	0.00	29.860 
01:40	64.5	64.5	64.5	88	60.9	0	0	---	0.00	29.860 
01:45	64.5	64.5	64.5	88	60.9	0	0	---	0.00	29.855 
01:50	64.3	64.3	64.3	88	60.7	0	0	---	0.00	29.855 
01:55	64.3	64.3	64.3	88	60.7	0	0	---	0.00	29.855 
02:00	64.3	64.3	64.3	88	60.7	0	0	---	0.00	29.850 
02:05	64.2	64.2	64.2	88	60.6	0	0	---	0.00	29.850 
02:10	64.2	64.2	64.2	88	60.6	0	0	---	0.00	29.850 
02:15	64.2	64.2	64.2	88	60.6	0	0	---	0.00	29.844 
02:20	64.2	64.2	64.2	89	60.9	0	0	---	0.00	29.844 
02:25	64.0	64.0	64.0	89	60.7	0	0	---	0.00	29.844 
02:30	64.0	64.0	64.0	88	60.4	0	0	---	0.00	29.837 
02:35	63.9	63.9	63.9	88	60.3	0	0	---	0.00	29.837 
02:40	63.9	63.9	63.9	88	60.3	0	0	---	0.00	29.837 
02:45	63.7	63.7	63.7	88	60.1	0	0	---	0.00	29.846 
02:50	63.7	63.7	63.7	88	60.1	0	0	---	0.00	29.846 
02:55	63.5	63.5	63.5	88	59.9	0	0	---	0.00	29.846 
03:00	63.5	63.5	63.5	88	59.9	0	0	---	0.00	29.843 
03:05	63.5	63.5	63.5	88	59.9	0	0	---	0.00	29.843 
03:10	63.5	63.5	63.5	88	59.9	0	0	---	0.00	29.843 
03:15	63.5	63.5	63.5	88	59.9	0	0	---	0.00	29.842 
03:20	63.5	63.5	63.5	88	59.9	0	0	---	0.00	29.842 
03:25	63.5	63.5	63.5	88	59.9	0	0	---	0.00	29.842 
03:30	63.4	63.4	63.4	88	59.8	0	0	---	0.00	29.841 
03:35	63.4	63.4	63.4	88	59.8	0	0	---	0.00	29.841 
03:40	63.2	63.2	63.2	88	59.6	0	0	---	0.00	29.841 
03:45	63.1	63.1	63.1	88	59.5	0	0	---	0.00	29.834 
03:50	62.9	62.9	62.9	88	59.3	0	0	---	0.00	29.834 
03:55	62.9	62.9	62.9	88	59.3	0	0	---	0.00	29.834 
04:00	62.7	62.7	62.7	88	59.1	0	0	---	0.00	29.830 
04:05	62.6	62.6	62.6	87	58.7	0	0	---	0.00	29.830 
04:10	62.4	62.4	62.4	87	58.5	0	0	---	0.00	29.830 
04:15	62.3	62.3	62.3	87	58.4	0	0	---	0.00	29.831 
04:20	62.1	62.1	62.1	88	58.5	0	0	---	0.00	29.831 
04:25	62.0	62.0	62.0	88	58.4	0	0	---	0.00	29.831 
04:30	61.8	61.8	61.8	88	58.2	0	0	---	0.00	29.833 
04:35	61.6	61.6	61.6	88	58.0	0	0	---	0.00	29.833 
04:40	61.5	61.5	61.5	88	57.9	0	0	---	0.00	29.833 
04:45	61.3	61.3	61.3	89	58.0	0	0	---	0.00	29.834 
04:50	61.2	61.2	61.2	89	57.9	0	0	---	0.00	29.834 
04:55	60.9	60.9	60.9	89	57.6	0	0	---	0.00	29.834 
05:00	60.7	60.7	60.7	90	57.7	0	0	---	0.00	29.835 
05:05	60.5	60.5	60.5	90	57.5	0	0	---	0.00	29.835 
05:10	60.5	60.5	60.5	90	57.5	0	0	---	0.00	29.835 
05:15	60.4	60.4	60.4	91	57.8	0	0	---	0.00	29.842 
05:20	60.4	60.4	60.4	91	57.8	0	0	---	0.00	29.842 
05:25	60.2	60.2	60.2	92	57.9	0	0	---	0.00	29.842 
05:30	60.2	60.2	60.2	92	57.9	0	0	---	0.00	29.845 
05:35	60.1	60.1	60.1	92	57.8	0	0	---	0.00	29.845 
05:40	60.1	60.1	60.1	92	57.8	0	0	---	0.00	29.845 
05:45	59.9	59.9	59.9	92	57.6	0	0	---	0.00	29.847 
05:50	59.8	59.8	59.8	92	57.5	0	0	---	0.00	29.847 
05:55	59.8	59.8	59.8	92	57.5	0	0	---	0.00	29.847 
06:00	59.6	59.6	59.6	92	57.3	0	0	---	0.00	29.848 
06:05	59.5	59.5	59.5	92	57.2	0	0	---	0.00	29.848 
06:10	59.5	59.5	59.5	92	57.2	0	0	---	0.00	29.848 
06:15	59.3	59.3	59.3	92	57.0	0	0	---	0.00	29.852 
06:20	59.3	59.3	59.3	92	57.0	0	0	---	0.00	29.852 
06:25	59.3	59.3	59.3	93	57.3	0	0	---	0.00	29.852 
06:30	59.6	59.6	59.6	93	57.6	0	0	---	0.00	29.857 
06:35	60.1	60.1	60.1	94	58.4	0	0	---	0.00	29.857 
06:40	60.5	60.5	60.5	94	58.8	0	1	315	0.00	29.857 
06:45	60.9	60.9	60.9	93	58.9	0	1	315	0.00	29.862 
06:50	61.2	61.2	61.2	92	58.9	0	0	---	0.00	29.862 
06:55	61.5	61.5	61.5	92	59.2	0	1	315	0.00	29.862 
07:00	61.8	61.8	61.8	91	59.1	0	1	315	0.00	29.863 
07:05	62.1	62.1	62.1	90	59.1	0	1	315	0.00	29.863 
07:10	62.3	62.3	62.3	90	59.3	0	1	315	0.00	29.863 
07:15	62.4	62.4	62.4	90	59.4	0	1	315	0.00	29.864 
07:20	62.6	62.6	62.6	89	59.3	0	1	315	0.00	29.864 
07:25	62.7	62.7	62.7	89	59.4	0	1	315	0.00	29.864 
07:30	62.9	62.9	62.9	89	59.6	0	1	315	0.00	29.870 
07:35	63.2	63.2	63.2	89	59.9	0	1	315	0.00	29.870 
07:40	63.4	63.4	63.4	88	59.8	0	1	315	0.00	29.870 
07:45	63.7	63.7	63.7	88	60.1	0	1	315	0.00	29.875 
07:50	63.9	63.9	63.9	88	60.3	0	1	315	0.00	29.875 
07:55	64.2	64.2	64.2	87	60.2	0	1	315	0.00	29.875 
08:00	64.3	64.3	64.3	87	60.3	1	2	315	0.00	29.879 
08:05	64.7	64.7	64.7	86	60.4	1	2	315	0.00	29.879 
08:10	65.0	65.0	65.0	86	60.7	0	2	315	0.00	29.879 
08:15	65.3	65.3	65.3	86	61.0	0	1	315	0.00	29.882 
08:20	65.6	65.6	65.6	85	61.0	0	1	315	0.00	29.882 
08:25	65.8	65.8	65.8	84	60.8	0	1	315	0.00	29.882 
08:30	66.1	66.1	66.1	83	60.8	1	3	315	0.00	29.887 
08:35	66.4	66.4	66.4	82	60.7	0	2	315	0.00	29.887 
08:40	66.8	66.8	66.8	82	61.1	0	1	315	0.00	29.887 
08:45	66.9	66.9	66.9	80	60.5	1	3	315	0.00	29.892 
08:50	67.3	67.3	67.3	80	60.9	0	2	315	0.00	29.892 
08:55	67.4	67.4	67.4	78	60.3	1	3	315	0.00	29.892 
09:00	67.8	67.8	67.8	79	61.0	0	3	315	0.00	29.894 
09:05	67.9	67.9	67.9	77	60.4	0	2	292	0.00	29.894 
09:10	68.1	68.1	68.1	76	60.2	1	5	270	0.00	29.894 
09:15	68.4	68.4	68.4	76	60.5	1	3	22	0.00	29.903 
09:20	68.6	68.6	68.6	76	60.7	0	1	315	0.00	29.903 
09:25	68.8	68.8	68.8	75	60.5	0	2	338	0.00	29.903 
09:30	69.1	69.1	69.1	74	60.5	0	3	338	0.00	29.907 
09:35	69.1	69.1	69.1	74	60.5	1	3	315	0.00	29.907 
09:40	69.4	69.4	69.4	75	61.1	1	3	315	0.00	29.907 
09:45	69.6	69.6	69.6	73	60.6	0	3	315	0.00	29.911 
09:50	69.8	69.8	69.8	71	60.0	1	2	315	0.00	29.911 
09:55	69.9	69.9	69.9	70	59.7	1	3	292	0.00	29.911 
10:00	70.1	70.1	70.1	71	60.2	0	2	292	0.00	29.920 
10:05	70.4	70.4	70.4	69	59.7	0	2	315	0.00	29.920 
10:10	70.8	70.8	70.8	69	60.1	0	3	315	0.00	29.920 
10:15	71.3	71.3	71.3	68	60.2	0	3	315	0.00	29.921 
10:20	71.6	71.6	71.6	68	60.5	1	3	270	0.00	29.921 
10:25	71.8	71.8	71.8	65	59.4	1	3	270	0.00	29.921 
10:30	72.3	72.3	72.3	65	59.9	0	3	292	0.00	29.922 
10:35	72.8	72.8	72.8	62	59.0	0	2	338	0.00	29.922 
10:40	73.0	73.0	73.0	61	58.7	0	2	338	0.00	29.922 
10:45	73.0	73.0	73.0	61	58.7	0	2	338	0.00	29.925 
10:50	73.0	73.0	73.0	62	59.2	0	1	338	0.00	29.925 
10:55	72.8	72.8	72.8	60	58.1	1	3	315	0.00	29.925 
11:00	73.2	73.2	73.2	61	58.9	1	3	248	0.00	29.929 
11:05	73.0	73.0	73.0	58	57.3	1	4	292	0.00	29.929 
11:10	73.2	73.2	73.2	62	59.4	1	4	315	0.00	29.929 
11:15	73.5	73.5	73.5	59	58.3	1	4	292	0.00	29.937 
11:20	73.9	73.9	73.9	59	58.7	1	3	292	0.00	29.937 
11:25	74.2	74.2	74.2	59	58.9	0	2	270	0.00	29.937 
11:30	74.6	74.6	74.6	56	57.8	1	3	270	0.00	29.940 
11:35	74.2	74.2	74.2	55	57.0	2	4	292	0.00	29.940 
11:40	74.2	74.2	74.2	58	58.5	2	5	270	0.00	29.940 
11:45	74.2	74.2	74.2	57	58.0	2	5	270	0.00	29.942 
11:50	74.4	74.4	74.4	59	59.1	0	2	292	0.00	29.942 
11:55	74.7	74.7	74.7	58	58.9	1	2	292	0.00	29.942 
12:00	75.1	75.1	77.5	58	59.3	0	3	270	0.00	29.946 
12:05	75.3	75.3	77.6	57	59.0	1	4	270	0.00	29.946 
12:10	75.3	75.3	77.7	56	58.5	1	4	315	0.00	29.946 
12:15	75.4	75.4	77.7	58	59.6	0	2	315	0.00	29.950 
12:20	75.4	75.4	77.7	55	58.1	1	3	292	0.00	29.950 
12:25	75.8	75.8	77.9	60	60.9	1	2	292	0.00	29.950 
12:30	76.1	76.1	78.1	57	59.7	1	4	292	0.00	29.954 
12:35	76.0	76.0	78.1	53	57.6	2	5	292	0.00	29.954 
12:40	76.0	76.0	78.1	57	59.6	0	3	292	0.00	29.954 
12:45	75.4	75.4	77.8	53	57.1	1	3	292	0.00	29.955 
12:50	75.3	75.3	77.7	54	57.5	1	4	292	0.00	29.955 
12:55	76.0	76.0	78.1	55	58.6	1	4	292	0.00	29.955 
13:00	76.3	76.3	78.3	55	58.9	1	2	292	0.00	29.955 
13:05	76.7	76.7	78.5	53	58.3	1	4	270	0.00	29.955 
13:10	77.0	77.0	78.6	51	57.5	1	5	270	0.00	29.955 
13:15	76.8	76.8	78.5	51	57.3	1	3	315	0.00	29.955 
13:20	77.0	77.0	78.6	51	57.5	1	3	315	0.00	29.955 
13:25	76.5	76.5	78.4	52	57.5	1	3	315	0.00	29.955 
13:30	76.5	76.5	78.3	51	57.0	2	5	292	0.00	29.954 
13:35	76.7	76.7	78.5	52	57.7	2	5	270	0.00	29.954 
13:40	76.3	76.3	78.2	50	56.3	2	4	292	0.00	29.954 
13:45	76.7	76.7	78.5	53	58.3	1	4	315	0.00	29.956 
13:50	77.0	77.0	78.6	49	56.4	2	5	292	0.00	29.956 
13:55	76.8	76.8	78.5	50	56.7	2	5	270	0.00	29.956 
14:00	77.0	77.0	78.6	50	56.9	1	3	292	0.00	29.955 
14:05	76.5	76.5	78.3	49	55.9	1	3	292	0.00	29.955 
14:10	77.0	77.0	78.6	50	56.9	1	4	270	0.00	29.955 
14:15	77.7	77.7	79.0	50	57.6	1	3	270	0.00	29.953 
14:20	78.3	78.3	79.3	48	57.0	1	4	270	0.00	29.953 
14:25	78.6	78.6	79.6	49	57.8	1	3	248	0.00	29.953 
14:30	79.0	79.0	79.7	46	56.4	2	5	248	0.00	29.955 
14:35	78.6	78.6	79.5	48	57.2	2	3	292	0.00	29.955 
14:40	78.6	78.6	79.6	49	57.8	1	3	270	0.00	29.955 
14:45	78.6	78.6	79.5	47	56.7	1	3	0	0.00	29.955 
14:50	78.8	78.8	79.6	46	56.2	2	3	270	0.00	29.955 
14:55	78.5	78.5	79.4	46	56.0	1	7	270	0.00	29.955 
15:00	78.6	78.6	79.7	50	58.4	1	3	338	0.00	29.955 
15:05	79.0	79.0	79.7	46	56.4	1	4	338	0.00	29.955 
15:10	79.2	79.2	80.1	49	58.4	1	2	292	0.00	29.955 
15:15	78.8	78.8	79.6	47	56.8	1	2	292	0.00	29.956 
15:20	78.8	78.8	79.6	46	56.2	1	3	292	0.00	29.956 
15:25	78.5	78.5	79.4	47	56.6	2	4	292	0.00	29.956 
15:30	78.8	78.8	79.7	49	58.0	1	5	292	0.00	29.955 
15:35	79.2	79.2	79.8	45	56.0	2	5	270	0.00	29.955 
15:40	79.2	79.2	79.8	45	56.0	2	4	315	0.00	29.955 
15:45	79.0	79.0	79.5	43	54.6	2	4	270	0.00	29.958 
15:50	79.4	79.4	79.9	45	56.2	1	3	292	0.00	29.958 
15:55	79.8	79.8	80.1	44	55.9	1	2	292	0.00	29.958 
16:00	79.0	79.0	79.6	44	55.2	1	3	0	0.00	29.956 
16:05	79.0	79.0	79.6	44	55.2	1	3	0	0.00	29.956 
16:10	79.2	79.2	79.5	42	54.1	1	2	292	0.00	29.956 
16:15	79.4	79.4	79.6	41	53.6	2	5	270	0.00	29.956 
16:20	79.4	79.4	79.8	43	54.9	2	4	270	0.00	29.956 
16:25	78.5	78.5	79.2	43	54.1	1	5	270	0.00	29.956 
16:30	78.1	78.1	79.0	44	54.4	1	5	270	0.00	29.957 
16:35	78.6	78.6	79.5	48	57.2	1	5	315	0.00	29.957 
16:40	79.4	79.4	79.7	42	54.3	2	5	270	0.00	29.957 
16:45	79.4	79.4	79.6	41	53.6	1	2	315	0.00	29.954 
16:50	79.6	79.6	79.8	42	54.5	1	3	270	0.00	29.954 
16:55	79.4	79.4	79.8	43	54.9	1	3	270	0.00	29.954 
17:00	79.4	79.4	79.7	42	54.3	1	3	292	0.00	29.955 
17:05	79.6	79.6	79.7	40	53.1	2	4	270	0.00	29.955 
17:10	79.4	79.4	79.7	42	54.3	1	3	338	0.00	29.955 
17:15	78.6	78.6	79.3	44	54.8	1	3	338	0.00	29.957 
17:20	79.2	79.2	79.7	44	55.4	1	3	315	0.00	29.957 
17:25	79.4	79.4	79.7	42	54.3	1	4	270	0.00	29.957 
17:30	79.6	79.6	79.7	40	53.1	1	4	270	0.00	29.956 
17:35	79.8	79.8	79.6	38	51.9	1	3	315	0.00	29.956 
17:40	79.8	79.8	79.7	39	52.6	1	3	270	0.00	29.956 
17:45	79.9	79.9	79.9	40	53.4	1	2	338	0.00	29.956 
17:50	79.9	79.9	79.8	39	52.7	1	3	270	0.00	29.956 
17:55	79.8	79.8	79.9	41	54.0	1	4	270	0.00	29.956 
18:00	79.6	79.6	79.6	39	52.4	1	2	315	0.00	29.959 
18:05	79.6	79.6	79.6	39	52.4	1	3	315	0.00	29.959 
18:10	79.6	79.6	79.6	39	52.4	1	4	292	0.00	29.959 
18:15	79.2	79.2	79.5	41	53.4	1	3	292	0.00	29.961 
18:20	78.8	78.8	79.2	41	53.1	1	4	270	0.00	29.961 
18:25	78.6	78.6	79.2	42	53.6	1	3	292	0.00	29.961 
18:30	78.5	78.5	79.2	43	54.1	1	2	315	0.00	29.958 
18:35	78.6	78.6	79.2	42	53.6	0	2	315	0.00	29.958 
18:40	78.8	78.8	79.3	42	53.7	0	3	315	0.00	29.958 
18:45	78.6	78.6	79.0	40	52.2	1	3	315	0.00	29.958 
18:50	78.5	78.5	79.1	41	52.8	1	4	292	0.00	29.958 
18:55	78.5	78.5	79.1	41	52.8	0	2	292	0.00	29.958 
19:00	78.5	78.5	79.1	42	53.5	0	1	292	0.00	29.962 
19:05	78.3	78.3	79.1	43	53.9	0	2	292	0.00	29.962 
19:10	78.3	78.3	79.2	45	55.2	0	3	292	0.00	29.962 
19:15	78.3	78.3	79.1	43	53.9	0	1	292	0.00	29.960 
19:20	77.9	77.9	78.9	44	54.2	1	3	315	0.00	29.960 
19:25	77.4	77.4	78.6	43	53.1	1	4	270	0.00	29.960 
19:30	77.4	77.4	78.6	44	53.8	1	2	315	0.00	29.968 
19:35	77.2	77.2	78.5	44	53.6	1	2	315	0.00	29.968 
19:40	77.2	77.2	78.6	46	54.8	0	1	315	0.00	29.968 
19:45	77.0	77.0	78.5	46	54.6	0	1	315	0.00	29.971 
19:50	76.7	76.7	78.3	46	54.3	1	3	315	0.00	29.971 
19:55	76.7	76.7	78.3	46	54.3	0	2	292	0.00	29.971 
20:00	76.5	76.5	78.3	47	54.7	0	0	---	0.00	29.972 
20:05	76.3	76.3	78.2	47	54.6	0	1	292	0.00	29.972 
20:10	76.3	76.3	78.2	48	55.1	0	1	292	0.00	29.972 
20:15	76.1	76.1	78.1	48	55.0	0	1	292	0.00	29.973 
20:20	75.8	75.8	78.0	49	55.3	0	1	292	0.00	29.973 
20:25	75.6	75.6	77.9	50	55.6	0	1	292	0.00	29.973 
20:30	75.4	75.4	77.8	51	56.0	0	1	292	0.00	29.982 
20:35	75.1	75.1	77.7	50	55.2	0	1	292	0.00	29.982 
20:40	74.9	74.9	74.9	50	55.0	0	0	---	0.00	29.982 
20:45	74.6	74.6	74.6	50	54.7	0	0	---	0.00	29.986 
20:50	74.2	74.2	74.2	50	54.3	0	1	292	0.00	29.986 
20:55	74.0	74.0	74.0	50	54.2	0	1	292	0.00	29.986 
21:00	73.7	73.7	73.7	52	55.0	0	0	---	0.00	29.987 
21:05	73.2	73.2	73.2	52	54.5	0	0	---	0.00	29.987 
21:10	72.8	72.8	72.8	52	54.1	0	0	---	0.00	29.987 
21:15	72.5	72.5	72.5	54	54.9	0	0	---	0.00	29.989 
21:20	72.0	72.0	72.0	55	54.9	0	0	---	0.00	29.989 
21:25	71.5	71.5	71.5	57	55.5	0	0	---	0.00	29.989 
21:30	70.9	70.9	70.9	57	54.9	0	0	---	0.00	29.991 
21:35	70.4	70.4	70.4	59	55.4	0	0	---	0.00	29.991 
21:40	69.9	69.9	69.9	60	55.4	0	0	---	0.00	29.991 
21:45	69.4	69.4	69.4	61	55.4	0	0	---	0.00	29.998 
21:50	68.9	68.9	68.9	62	55.3	0	0	---	0.00	29.998 
21:55	68.4	68.4	68.4	63	55.3	0	0	---	0.00	29.998 
22:00	68.1	68.1	68.1	64	55.5	0	0	---	0.00	30.002 
22:05	67.6	67.6	67.6	65	55.4	0	0	---	0.00	30.002 
22:10	67.1	67.1	67.1	66	55.4	0	0	---	0.00	30.002 
22:15	66.8	66.8	66.8	67	55.5	0	0	---	0.00	30.005 
22:20	66.4	66.4	66.4	68	55.5	0	0	---	0.00	30.005 
22:25	66.1	66.1	66.1	69	55.6	0	0	---	0.00	30.005 
22:30	65.8	65.8	65.8	70	55.7	0	0	---	0.00	30.012 
22:35	65.6	65.6	65.6	71	55.9	0	0	---	0.00	30.012 
22:40	65.3	65.3	65.3	72	56.0	0	0	---	0.00	30.012 
22:45	65.0	65.0	65.0	73	56.1	0	0	---	0.00	30.018 
22:50	64.8	64.8	64.8	73	55.9	0	0	---	0.00	30.018 
22:55	64.5	64.5	64.5	74	56.0	0	0	---	0.00	30.018 
23:00	64.3	64.3	64.3	75	56.2	0	0	---	0.00	30.019 
23:05	64.2	64.2	64.2	76	56.5	0	0	---	0.00	30.019 
23:10	63.9	63.9	63.9	76	56.2	0	0	---	0.00	30.019 
23:15	63.7	63.7	63.7	77	56.3	0	0	---	0.00	30.018 
23:20	63.4	63.4	63.4	78	56.4	0	0	---	0.00	30.018 
23:25	63.2	63.2	63.2	79	56.6	0	0	---	0.00	30.018 
23:30	63.2	63.2	63.2	79	56.6	0	0	---	0.00	30.016 
23:35	63.1	63.1	63.1	80	56.8	0	0	---	0.00	30.016 
23:40	62.9	62.9	62.9	81	57.0	0	0	---	0.00	30.016 
23:45	62.7	62.7	62.7	81	56.8	0	0	---	0.00	30.019 
23:50	62.6	62.6	62.6	82	57.0	0	0	---	0.00	30.019 
23:55	62.4	62.4	62.4	82	56.8	0	0	---	0.00	30.019 

CoCoRaHS
IN-AL-39
A2 Web Hosting
Creative Commons License
GoDaddy
search engine by freefind advanced

loaded 2018-11-15 06:02:39 • last modified 2010-11-18 10:43:29
Privacy PolicyDisclaimer
• wx.awcolley.com is powered by PmWiki v.2002016 •
• all content (unless otherwise noted) © 2018 A W Colley